Time;durP1;ratioP1;P1;durP2;ratioP2;P2;SDS_P1;SDS_P2;PMS_P1;PMS_P2;Temp;Humidity;BMP_temperature;BMP_pressure;BME280_temperature;BME280_humidity;BME280_pressure;Samples;Min_cycle;Max_cycle;Signal;HPM_P1;HPM_P2
2022/09/30 04:31:44;;;;;;;;;16.50;16.50;;;;;11.00;69.59;100672.81;5058351;27;45583;-75
2022/09/30 04:34:10;;;;;;;;;13.50;13.50;;;;;11.03;70.00;100683.41;5034517;28;48058;-73
2022/09/30 04:36:35;;;;;;;;;14.50;14.50;;;;;11.05;69.93;100681.53;5017555;28;45421;-74
2022/09/30 04:39:01;;;;;;;;;17.00;16.00;;;;;11.14;69.83;100688.25;5034733;28;45337;-72
2022/09/30 04:41:26;;;;;;;;;17.75;14.25;;;;;11.15;69.31;100692.66;5034135;28;45352;-73
2022/09/30 04:43:52;;;;;;;;;17.25;17.25;;;;;11.23;69.29;100703.88;5033906;28;46953;-73
2022/09/30 04:46:19;;;;;;;;;20.25;13.75;;;;;11.28;69.42;100708.09;5034941;28;45343;-73
2022/09/30 04:48:46;;;;;;;;;12.25;12.25;;;;;11.26;69.47;100699.22;5042971;28;45400;-74
2022/09/30 04:51:12;;;;;;;;;14.75;14.75;;;;;11.24;69.01;100697.56;5048969;28;45547;-73
2022/09/30 04:53:38;;;;;;;;;14.00;14.00;;;;;11.23;68.85;100696.69;5035328;28;45382;-73
2022/09/30 04:56:04;;;;;;;;;12.50;12.50;;;;;11.17;68.84;100697.00;5034860;28;45448;-74
2022/09/30 04:58:31;;;;;;;;;12.50;12.25;;;;;11.22;69.02;100697.66;5035190;28;45357;-75
2022/09/30 05:01:04;;;;;;;;;13.75;13.75;;;;;11.09;68.82;100684.91;5045695;28;45635;-72
2022/09/30 05:03:30;;;;;;;;;14.00;12.50;;;;;11.10;69.34;100678.59;5035794;28;47295;-74
2022/09/30 05:05:56;;;;;;;;;12.50;12.25;;;;;11.23;68.92;100701.19;5036816;28;45748;-75
2022/09/30 05:08:21;;;;;;;;;13.50;13.25;;;;;11.24;69.40;100717.22;5055381;28;45217;-75
2022/09/30 05:10:55;;;;;;;;;12.50;10.50;;;;;11.21;69.20;100716.53;5040705;28;45526;-74
2022/09/30 05:13:21;;;;;;;;;14.75;14.75;;;;;11.18;69.10;100713.97;5038876;28;47041;-76
2022/09/30 05:15:48;;;;;;;;;18.50;15.75;;;;;11.09;69.05;100704.56;5059542;28;45403;-76
2022/09/30 05:18:13;;;;;;;;;15.00;13.00;;;;;11.12;69.34;100709.78;5058234;28;45421;-77
2022/09/30 05:20:44;;;;;;;;;14.75;14.75;;;;;11.17;69.20;100720.28;5059304;28;45459;-71
2022/09/30 05:23:09;;;;;;;;;14.75;14.75;;;;;10.91;69.34;100682.16;5040139;28;46422;-76
2022/09/30 05:25:34;;;;;;;;;15.00;15.00;;;;;11.07;69.58;100717.16;5054539;28;45253;-73
2022/09/30 05:28:00;;;;;;;;;16.25;14.25;;;;;11.05;69.15;100716.41;5054758;28;45526;-73
2022/09/30 05:30:26;;;;;;;;;18.75;15.00;;;;;11.03;69.79;100712.03;5054675;28;45415;-75
2022/09/30 05:32:52;;;;;;;;;17.50;17.00;;;;;10.98;69.38;100715.81;5069621;28;47160;-75
2022/09/30 05:35:17;;;;;;;;;15.50;14.75;;;;;11.06;68.95;100722.63;5041728;28;45359;-75
2022/09/30 05:37:42;;;;;;;;;20.50;16.25;;;;;11.08;69.41;100734.13;5034813;28;45451;-77
2022/09/30 05:40:08;;;;;;;;;15.00;15.00;;;;;11.04;69.54;100730.75;5034567;28;45474;-76
2022/09/30 05:42:35;;;;;;;;;14.50;12.50;;;;;10.91;69.76;100708.13;5034266;28;45474;-75
2022/09/30 05:45:05;;;;;;;;;15.50;14.25;;;;;11.06;69.76;100746.78;5032891;28;45340;-76
2022/09/30 05:47:31;;;;;;;;;21.00;18.75;;;;;10.93;69.63;100720.53;5034605;28;45403;-79
2022/09/30 05:49:57;;;;;;;;;20.00;19.00;;;;;10.94;69.84;100729.44;5053995;28;45491;-78
2022/09/30 05:52:22;;;;;;;;;19.00;19.00;;;;;10.94;70.34;100737.50;5054630;28;47374;-79
2022/09/30 05:54:47;;;;;;;;;15.50;15.00;;;;;10.73;70.22;100714.34;5048154;28;45438;-79
2022/09/30 05:57:13;;;;;;;;;20.00;17.75;;;;;10.91;70.34;100740.31;5034833;28;45374;-74
2022/09/30 05:59:38;;;;;;;;;18.25;18.25;;;;;10.90;69.84;100746.63;5034696;28;46373;-70
2022/09/30 06:02:04;;;;;;;;;18.50;18.50;;;;;10.75;70.15;100710.66;5053166;28;46819;-71
2022/09/30 06:04:30;;;;;;;;;18.75;17.00;;;;;10.94;70.05;100748.22;5054420;28;45405;-73
2022/09/30 06:06:55;;;;;;;;;20.00;18.75;;;;;10.89;69.31;100735.00;5054100;28;45503;-71
2022/09/30 06:09:20;;;;;;;;;20.75;20.75;;;;;10.90;69.36;100747.47;5054266;28;45406;-71
2022/09/30 06:11:46;;;;;;;;;19.50;18.00;;;;;10.94;69.64;100767.88;5053132;28;45954;-73
2022/09/30 06:14:12;;;;;;;;;20.00;19.50;;;;;10.91;69.82;100772.50;5051774;28;45396;-73
2022/09/30 06:16:38;;;;;;;;;19.50;19.50;;;;;10.94;69.87;100767.00;5053465;28;45350;-73
2022/09/30 06:19:05;;;;;;;;;18.75;17.50;;;;;10.95;69.84;100776.78;5054116;28;45300;-72
2022/09/30 06:21:31;;;;;;;;;20.25;19.00;;;;;10.94;69.92;100770.56;5054065;28;46201;-72
2022/09/30 06:23:56;;;;;;;;;17.00;17.00;;;;;10.96;69.29;100770.50;5054113;28;45282;-71
2022/09/30 06:26:22;;;;;;;;;20.25;19.75;;;;;10.97;69.37;100770.38;5054108;28;45324;-72
2022/09/30 06:28:47;;;;;;;;;19.50;18.25;;;;;11.05;69.57;100787.97;5054126;28;45224;-73
2022/09/30 06:31:13;;;;;;;;;20.25;18.50;;;;;10.99;69.59;100779.25;5059609;28;46122;-73
2022/09/30 06:33:38;;;;;;;;;19.00;19.00;;;;;11.08;69.38;100795.84;5074154;28;45396;-73
2022/09/30 06:36:05;;;;;;;;;15.25;14.00;;;;;11.02;69.17;100791.66;5074210;28;45413;-73
2022/09/30 06:38:32;;;;;;;;;24.50;22.25;;;;;11.00;69.60;100793.53;5073968;28;45630;-71
2022/09/30 06:40:58;;;;;;;;;19.25;18.25;;;;;11.03;69.35;100787.16;5073971;28;46071;-72
2022/09/30 06:43:24;;;;;;;;;19.25;18.50;;;;;11.07;69.10;100789.59;5065015;28;45414;-73
2022/09/30 06:45:50;;;;;;;;;23.75;22.25;;;;;11.13;68.71;100793.84;5053830;28;45221;-72
2022/09/30 06:48:16;;;;;;;;;20.50;17.25;;;;;11.20;68.77;100797.97;5053921;28;45545;-72
2022/09/30 06:50:42;;;;;;;;;24.25;21.50;;;;;11.13;69.04;100800.06;5072132;27;45460;-73
2022/09/30 06:53:10;;;;;;;;;24.50;23.00;;;;;11.15;69.19;100806.22;5053861;28;45583;-72
2022/09/30 06:55:37;;;;;;;;;24.25;20.75;;;;;11.10;69.24;100785.91;5052321;28;45405;-74
2022/09/30 06:58:05;;;;;;;;;22.75;18.00;;;;;11.13;69.30;100805.44;5050903;28;45399;-75
2022/09/30 07:00:30;;;;;;;;;24.50;22.00;;;;;11.20;68.75;100814.94;5063067;27;46430;-73
2022/09/30 07:02:55;;;;;;;;;25.00;25.00;;;;;11.21;68.78;100797.91;5089370;27;45309;-74
2022/09/30 07:05:22;;;;;;;;;20.00;18.50;;;;;11.26;68.65;100800.34;5084884;27;45455;-74
2022/09/30 07:07:48;;;;;;;;;30.25;20.50;;;;;11.10;68.60;100768.00;5076123;27;45452;-73
2022/09/30 07:10:13;;;;;;;;;26.25;25.25;;;;;11.37;68.45;100806.94;5061193;27;45456;-73
2022/09/30 07:12:39;;;;;;;;;24.00;24.00;;;;;11.37;68.22;100804.25;5090350;27;45248;-73
2022/09/30 07:15:05;;;;;;;;;20.75;19.50;;;;;11.43;68.61;100792.34;5085879;27;45493;-74
2022/09/30 07:17:30;;;;;;;;;24.25;24.25;;;;;11.36;68.17;100778.38;5073050;28;45376;-74
2022/09/30 07:19:57;;;;;;;;;24.00;21.75;;;;;11.47;67.88;100790.41;5071978;28;47490;-74
2022/09/30 07:22:29;;;;;;;;;21.00;19.25;;;;;11.52;68.03;100791.91;5070289;27;45490;-75
2022/09/30 07:24:56;;;;;;;;;21.00;21.00;;;;;11.62;67.74;100803.06;5042567;28;45526;-73
2022/09/30 07:27:21;;;;;;;;;26.50;25.25;;;;;11.68;67.49;100800.06;5064748;28;46166;-76
2022/09/30 07:29:47;;;;;;;;;21.25;21.25;;;;;11.44;67.32;100756.50;5056093;28;45290;-72
2022/09/30 07:32:13;;;;;;;;;29.25;25.75;;;;;11.78;67.14;100809.44;5037778;28;45513;-72
2022/09/30 07:34:44;;;;;;;;;25.00;22.50;;;;;11.77;66.82;100791.59;5058006;28;45394;-75
2022/09/30 07:37:13;;;;;;;;;28.75;26.75;;;;;11.86;66.94;100812.63;5078306;27;45527;-72
2022/09/30 07:39:43;;;;;;;;;24.00;22.50;;;;;11.90;66.91;100818.72;5081101;27;46618;-73
2022/09/30 07:42:09;;;;;;;;;24.75;24.25;;;;;11.80;66.40;100794.13;5075843;27;45417;-75
2022/09/30 07:44:35;;;;;;;;;30.50;30.50;;;;;11.90;66.40;100816.91;5074468;27;45398;-75
2022/09/30 07:47:02;;;;;;;;;28.00;28.00;;;;;12.01;66.24;100833.34;5076309;28;45811;-72
2022/09/30 07:49:28;;;;;;;;;27.25;27.25;;;;;11.99;66.55;100810.19;5075114;27;45460;-73
2022/09/30 07:51:57;;;;;;;;;27.25;25.75;;;;;12.00;66.41;100802.03;5063759;28;45472;-75
2022/09/30 07:54:27;;;;;;;;;29.00;26.75;;;;;12.11;66.18;100812.25;5056117;28;45356;-73
2022/09/30 07:56:53;;;;;;;;;25.75;25.75;;;;;12.27;66.59;100823.06;5055456;28;45510;-76
2022/09/30 07:59:19;;;;;;;;;36.00;29.25;;;;;12.28;65.47;100824.81;5072684;28;45405;-76
2022/09/30 08:01:45;;;;;;;;;32.25;31.00;;;;;12.32;65.47;100827.28;5057842;28;45440;-76
2022/09/30 08:04:12;;;;;;;;;36.00;30.50;;;;;12.39;65.69;100827.84;5055590;28;45235;-76
2022/09/30 08:06:41;;;;;;;;;31.75;29.00;;;;;12.41;65.81;100821.44;5055764;28;45692;-76
2022/09/30 08:09:07;;;;;;;;;30.75;29.00;;;;;12.38;65.29;100802.75;5065676;27;45606;-76
2022/09/30 08:11:34;;;;;;;;;31.00;30.00;;;;;12.50;65.30;100820.09;5051688;28;45313;-74
2022/09/30 08:14:00;;;;;;;;;26.50;24.00;;;;;12.55;65.69;100817.13;5055678;28;45401;-76
2022/09/30 08:16:25;;;;;;;;;28.25;25.00;;;;;12.64;65.58;100817.53;5056361;28;45486;-75
2022/09/30 08:18:59;;;;;;;;;24.75;24.75;;;;;12.69;65.26;100820.81;5056066;28;45355;-77
2022/09/30 08:21:25;;;;;;;;;32.00;29.00;;;;;12.77;65.04;100826.66;5056401;28;45410;-75
2022/09/30 08:23:50;;;;;;;;;29.75;28.25;;;;;12.76;65.05;100808.78;5062789;27;45413;-77
2022/09/30 08:26:16;;;;;;;;;32.25;28.50;;;;;12.85;64.44;100828.94;5076431;28;45453;-74
2022/09/30 08:28:45;;;;;;;;;31.75;28.50;;;;;12.86;64.53;100825.31;5068917;28;46358;-76
2022/09/30 08:31:14;;;;;;;;;29.75;27.00;;;;;12.87;65.02;100801.00;5055017;28;45442;-76
2022/09/30 08:33:40;;;;;;;;;31.50;25.50;;;;;13.01;65.44;100816.41;5055752;28;45339;-75
2022/09/30 08:36:16;;;;;;;;;32.00;25.75;;;;;13.03;63.00;100811.78;5054125;28;45415;-77
2022/09/30 08:38:43;;;;;;;;;22.75;21.00;;;;;13.00;63.63;100803.91;5036976;28;46977;-75
2022/09/30 08:41:35;;;;;;;;;36.00;34.50;;;;;13.12;63.60;100823.88;5055441;28;45364;-76
2022/09/30 08:44:20;;;;;;;;;32.00;25.50;;;;;13.18;63.85;100827.13;5037245;28;45402;-76
2022/09/30 08:47:17;;;;;;;;;29.25;29.00;;;;;13.10;63.28;100809.66;5055206;28;45347;-75
2022/09/30 08:50:02;;;;;;;;;31.00;29.75;;;;;13.26;63.61;100821.34;5022591;28;45489;-76
2022/09/30 08:52:50;;;;;;;;;32.00;29.50;;;;;13.37;63.52;100818.03;5055510;28;45551;-76
2022/09/30 08:55:27;;;;;;;;;34.25;34.00;;;;;13.32;63.41;100793.19;5056258;28;45343;-75
2022/09/30 08:57:55;;;;;;;;;32.50;30.75;;;;;13.55;63.41;100817.00;5055642;28;45540;-76
2022/09/30 09:00:26;;;;;;;;;31.25;31.25;;;;;13.61;63.09;100820.19;5048728;28;45532;-74
2022/09/30 09:03:02;;;;;;;;;33.75;29.50;;;;;13.71;62.52;100825.06;5056144;28;45477;-74
2022/09/30 09:05:46;;;;;;;;;29.50;28.75;;;;;13.78;62.69;100824.63;5056278;28;45413;-76
2022/09/30 09:08:28;;;;;;;;;32.75;29.25;;;;;13.82;61.02;100825.31;5056978;28;45296;-75
2022/09/30 09:11:23;;;;;;;;;29.75;27.50;;;;;13.77;60.92;100817.53;5037217;28;47347;-75
2022/09/30 09:14:26;;;;;;;;;26.25;26.00;;;;;13.88;60.63;100820.44;5054374;28;46152;-75
2022/09/30 09:17:20;;;;;;;;;26.00;23.25;;;;;13.92;60.96;100813.06;4954437;28;45584;-74
2022/09/30 09:20:19;;;;;;;;;25.25;24.25;;;;;14.08;61.04;100831.88;4953056;28;45636;-76
2022/09/30 09:22:45;;;;;;;;;17.75;16.50;;;;;14.16;59.15;100835.88;5040682;28;45530;-74
2022/09/30 09:25:20;;;;;;;;;20.50;16.25;;;;;14.23;58.83;100833.66;5054853;28;45467;-76
2022/09/30 09:27:56;;;;;;;;;14.25;13.00;;;;;14.17;57.43;100828.66;5054612;28;45489;-75
2022/09/30 09:30:24;;;;;;;;;16.00;16.00;;;;;14.28;57.01;100829.75;5054764;28;45335;-74
2022/09/30 09:33:10;;;;;;;;;17.75;17.75;;;;;14.37;58.18;100837.25;5074078;28;45473;-75
2022/09/30 09:35:48;;;;;;;;;14.25;14.25;;;;;14.32;57.78;100825.91;5074769;28;45407;-76
2022/09/30 09:38:37;;;;;;;;;17.00;14.50;;;;;14.51;58.11;100838.31;5074877;28;45508;-77
2022/09/30 09:41:15;;;;;;;;;16.50;14.00;;;;;14.58;57.19;100843.25;5034605;28;47063;-74
2022/09/30 09:44:16;;;;;;;;;13.50;13.00;;;;;14.60;58.17;100835.94;5074639;28;45432;-75
2022/09/30 09:46:49;;;;;;;;;13.25;13.25;;;;;14.62;57.37;100834.00;5036923;28;45568;-76
2022/09/30 09:49:22;;;;;;;;;12.00;10.00;;;;;14.76;56.39;100847.53;5054331;28;45387;-75
2022/09/30 09:52:12;;;;;;;;;13.50;10.25;;;;;14.76;55.67;100849.34;5053469;28;45442;-75
2022/09/30 09:54:43;;;;;;;;;13.25;11.50;;;;;14.75;56.39;100839.50;5050463;28;45438;-73
2022/09/30 09:57:14;;;;;;;;;10.25;10.25;;;;;14.81;55.22;100832.84;5061136;28;45531;-78
2022/09/30 10:03:00;;;;;;;;;13.50;13.00;;;;;14.87;55.55;100835.19;5038398;28;45383;-74
2022/09/30 10:05:27;;;;;;;;;11.00;10.75;;;;;14.91;55.71;100824.09;5073683;28;48408;-79
2022/09/30 10:08:09;;;;;;;;;12.00;12.00;;;;;14.93;55.07;100818.59;5063061;28;45367;-77
2022/09/30 10:11:03;;;;;;;;;12.50;9.25;;;;;15.14;55.33;100831.59;5054322;28;45521;-77
2022/09/30 10:13:40;;;;;;;;;9.50;9.50;;;;;15.19;54.48;100843.97;5047294;28;45395;-79
2022/09/30 10:16:05;;;;;;;;;11.00;8.25;;;;;15.20;54.16;100834.91;5055989;28;45413;-71
2022/09/30 10:18:34;;;;;;;;;15.00;10.50;;;;;15.24;54.25;100834.59;5072491;28;46056;-74
2022/09/30 10:21:05;;;;;;;;;11.75;11.50;;;;;15.39;53.73;100840.88;5075131;28;45465;-76
2022/09/30 10:23:35;;;;;;;;;10.00;10.00;;;;;15.46;53.20;100842.22;5059138;28;45683;-73
2022/09/30 10:26:02;;;;;;;;;10.50;10.00;;;;;15.49;54.04;100832.06;5054361;28;45422;-79
2022/09/30 10:28:31;;;;;;;;;10.25;10.25;;;;;15.55;52.34;100833.53;5054683;28;45348;-75
2022/09/30 10:31:04;;;;;;;;;7.50;6.00;;;;;15.59;52.65;100842.28;5058751;28;45439;-76
2022/09/30 10:33:44;;;;;;;;;8.50;8.50;;;;;15.64;51.80;100840.19;5074331;28;45615;-76
2022/09/30 10:36:21;;;;;;;;;7.50;7.50;;;;;15.73;52.23;100845.84;5076296;28;45400;-76
2022/09/30 10:38:56;;;;;;;;;9.75;8.00;;;;;15.61;51.58;100805.25;5075925;28;45402;-74
2022/09/30 10:41:26;;;;;;;;;8.00;8.00;;;;;15.85;51.96;100830.66;5078504;28;45336;-76
2022/09/30 10:43:55;;;;;;;;;11.25;10.50;;;;;15.99;51.45;100843.25;5077479;28;45746;-76
2022/09/30 10:46:32;;;;;;;;;8.25;8.25;;;;;16.07;50.79;100844.47;5076856;28;46255;-76
2022/09/30 10:48:58;;;;;;;;;10.25;8.00;;;;;16.07;50.27;100821.97;5082454;27;45693;-76
2022/09/30 10:51:27;;;;;;;;;11.00;9.00;;;;;16.26;50.36;100844.09;5077423;28;45454;-72
2022/09/30 10:53:54;;;;;;;;;6.75;6.75;;;;;16.35;50.85;100843.47;5077081;28;45433;-75
2022/09/30 10:56:38;;;;;;;;;12.50;11.00;;;;;16.48;50.55;100847.09;5058684;28;46711;-74
2022/09/30 10:59:15;;;;;;;;;9.00;9.00;;;;;16.55;50.31;100833.97;5077196;28;45391;-73
2022/09/30 11:01:53;;;;;;;;;10.50;8.00;;;;;16.69;49.18;100820.38;5058379;28;45901;-76
2022/09/30 11:04:30;;;;;;;;;14.50;12.00;;;;;16.85;49.48;100793.94;5077217;28;45668;-77
2022/09/30 11:07:10;;;;;;;;;9.00;9.00;;;;;17.30;50.30;100816.88;5076819;28;46340;-71
2022/09/30 11:09:45;;;;;;;;;8.75;8.00;;;;;17.78;49.46;100817.84;5076934;28;45558;-75
2022/09/30 11:12:24;;;;;;;;;8.25;7.50;;;;;18.23;47.63;100799.06;5077005;28;45337;-78
2022/09/30 11:15:20;;;;;;;;;8.50;7.50;;;;;19.00;44.33;100834.72;5077071;28;45454;-78
2022/09/30 11:17:56;;;;;;;;;7.00;7.00;;;;;19.51;43.34;100821.50;5076946;28;45382;-78
2022/09/30 11:20:31;;;;;;;;;6.00;6.00;;;;;20.01;43.33;100806.44;5076584;28;45433;-79
2022/09/30 11:23:10;;;;;;;;;9.25;6.50;;;;;20.64;39.76;100827.34;5075245;28;45656;-78
2022/09/30 11:25:50;;;;;;;;;6.25;6.25;;;;;20.95;39.64;100825.53;5073954;28;46079;-78
2022/09/30 11:28:27;;;;;;;;;6.25;5.50;;;;;21.40;38.64;100815.16;5074820;28;46996;-76
2022/09/30 11:31:00;;;;;;;;;5.00;5.00;;;;;21.75;37.47;100805.63;5075331;28;45691;-79
2022/09/30 11:33:42;;;;;;;;;6.75;6.75;;;;;22.13;35.58;100815.75;5076660;28;45279;-78
2022/09/30 11:36:26;;;;;;;;;6.00;5.25;;;;;21.89;36.06;100813.41;5077237;28;45548;-78
2022/09/30 11:38:54;;;;;;;;;4.75;3.25;;;;;22.16;35.74;100823.69;5077457;28;46186;-78
2022/09/30 11:41:44;;;;;;;;;4.50;4.50;;;;;22.19;34.92;100827.00;5058956;28;45423;-77
2022/09/30 11:44:34;;;;;;;;;4.75;4.75;;;;;22.54;35.10;100820.91;5077676;28;45462;-77
2022/09/30 11:47:20;;;;;;;;;5.25;5.25;;;;;23.33;34.05;100823.34;5077582;28;45304;-77
2022/09/30 11:49:51;;;;;;;;;3.00;3.00;;;;;24.28;30.51;100815.63;5067493;28;45510;-77
2022/09/30 11:52:35;;;;;;;;;3.75;3.75;;;;;24.12;30.89;100820.91;5071642;28;45614;-78
2022/09/30 11:55:31;;;;;;;;;3.00;3.00;;;;;24.88;30.49;100811.13;5076628;28;45295;-77
2022/09/30 11:58:03;;;;;;;;;3.75;3.75;;;;;26.07;29.04;100798.34;5076137;28;45567;-75
2022/09/30 12:00:33;;;;;;;;;4.00;4.00;;;;;27.02;27.03;100814.22;5043795;28;46047;-75
2022/09/30 12:03:06;;;;;;;;;6.00;3.00;;;;;27.85;27.35;100798.06;5054645;28;45273;-75
2022/09/30 12:05:35;;;;;;;;;2.75;2.75;;;;;28.89;25.21;100815.97;5054879;28;45672;-77
2022/09/30 12:08:19;;;;;;;;;3.50;3.50;;;;;28.57;25.36;100798.63;5039467;28;45403;-75
2022/09/30 12:10:45;;;;;;;;;4.75;3.25;;;;;28.52;25.48;100811.25;5031658;28;47254;-75
2022/09/30 12:13:17;;;;;;;;;2.25;1.00;;;;;28.14;25.65;100811.19;5076194;28;45304;-77
2022/09/30 12:15:46;;;;;;;;;4.50;4.50;;;;;28.38;25.42;100801.03;5074890;28;45419;-76
2022/09/30 12:18:26;;;;;;;;;4.00;4.00;;;;;28.92;24.06;100799.88;5044205;28;45975;-77
2022/09/30 12:20:59;;;;;;;;;3.00;3.00;;;;;29.67;24.32;100794.19;5035846;28;46666;-75
2022/09/30 12:23:30;;;;;;;;;5.75;3.00;;;;;30.57;22.57;100782.69;5035670;28;45664;-75
2022/09/30 12:26:00;;;;;;;;;2.00;2.00;;;;;31.19;22.22;100773.59;5035486;28;45379;-74
2022/09/30 12:31:23;;;;;;;;;3.00;3.00;;;;;32.08;20.55;100773.56;5040893;28;45802;-76
2022/09/30 12:34:25;;;;;;;;;2.00;2.00;;;;;32.03;19.92;100776.13;5065701;28;45525;-76
2022/09/30 12:36:57;;;;;;;;;1.00;1.00;;;;;32.51;20.61;100776.84;5076115;28;45533;-75
2022/09/30 12:39:34;;;;;;;;;3.00;3.00;;;;;32.44;20.31;100768.53;5057331;28;45410;-75
2022/09/30 12:42:21;;;;;;;;;3.50;1.50;;;;;31.67;20.94;100766.19;5075760;28;45338;-75
2022/09/30 12:45:08;;;;;;;;;2.00;2.00;;;;;31.71;21.00;100766.63;5076035;28;45402;-76
2022/09/30 12:47:50;;;;;;;;;3.00;3.00;;;;;31.03;21.88;100752.59;5075406;28;45714;-77
2022/09/30 12:50:20;;;;;;;;;3.00;3.00;;;;;31.08;21.25;100760.31;5075295;28;45496;-76
2022/09/30 12:52:46;;;;;;;;;3.75;2.50;;;;;31.23;21.50;100755.47;5075031;28;46646;-77
2022/09/30 12:55:29;;;;;;;;;3.00;2.25;;;;;30.87;21.81;100754.81;5075324;28;45433;-80
2022/09/30 12:57:57;;;;;;;;;4.00;4.00;;;;;30.11;22.78;100764.75;5075271;28;45559;-75
2022/09/30 13:00:26;;;;;;;;;2.00;2.00;;;;;29.82;23.90;100754.59;5070048;28;45538;-75
2022/09/30 13:03:14;;;;;;;;;3.00;3.00;;;;;30.33;23.41;100739.66;5073921;28;45429;-76
2022/09/30 13:05:41;;;;;;;;;2.00;2.00;;;;;31.08;22.31;100738.16;5074544;28;45601;-75
2022/09/30 13:08:08;;;;;;;;;4.75;3.00;;;;;31.51;20.70;100745.19;5074927;28;45509;-75
2022/09/30 13:10:36;;;;;;;;;1.75;1.75;;;;;31.57;20.75;100744.34;5074343;28;45375;-75
2022/09/30 13:13:18;;;;;;;;;1.25;1.25;;;;;31.52;20.58;100737.75;5056659;28;47101;-76
2022/09/30 13:15:45;;;;;;;;;2.50;2.50;;;;;31.16;20.96;100729.66;5071198;28;45343;-75
2022/09/30 13:18:19;;;;;;;;;2.00;2.00;;;;;31.62;20.36;100738.25;5069513;28;45353;-76
2022/09/30 13:21:04;;;;;;;;;2.00;2.00;;;;;31.47;20.74;100737.50;5056204;28;45403;-75
2022/09/30 13:23:47;;;;;;;;;2.00;2.00;;;;;30.43;21.69;100720.81;5074620;28;46408;-75
2022/09/30 13:26:25;;;;;;;;;2.00;2.00;;;;;29.91;22.62;100731.31;5073783;28;45416;-75
2022/09/30 13:29:15;;;;;;;;;3.00;3.00;;;;;29.53;23.26;100717.69;5064074;28;45423;-76
2022/09/30 13:31:49;;;;;;;;;5.25;4.00;;;;;29.61;22.90;100725.00;5073227;28;45495;-75
2022/09/30 13:34:23;;;;;;;;;2.00;1.75;;;;;29.25;23.22;100705.66;5060767;28;45925;-77
2022/09/30 13:36:49;;;;;;;;;3.75;2.25;;;;;29.13;23.69;100729.25;5053195;28;45474;-75
2022/09/30 13:39:44;;;;;;;;;3.50;2.00;;;;;28.29;24.55;100716.66;5069309;28;45409;-76
2022/09/30 13:42:25;;;;;;;;;3.75;3.00;;;;;27.44;25.73;100725.78;5074861;28;45343;-76
2022/09/30 13:45:24;;;;;;;;;1.75;1.75;;;;;27.05;26.32;100722.19;5074472;28;45412;-76
2022/09/30 13:48:01;;;;;;;;;2.50;2.50;;;;;26.30;27.27;100727.09;5074481;28;45818;-74
2022/09/30 13:50:41;;;;;;;;;2.00;2.00;;;;;26.03;27.07;100716.44;5055835;28;45417;-75
2022/09/30 13:53:15;;;;;;;;;2.75;2.75;;;;;26.05;26.58;100700.59;5062596;28;46034;-75
2022/09/30 13:55:48;;;;;;;;;3.75;2.75;;;;;25.81;27.00;100724.28;5073998;28;45439;-76
2022/09/30 13:58:16;;;;;;;;;3.00;1.00;;;;;25.62;27.79;100730.94;5074804;28;45426;-75
2022/09/30 14:01:01;;;;;;;;;2.00;1.50;;;;;25.63;28.05;100718.06;5050916;28;45407;-76
2022/09/30 14:03:37;;;;;;;;;2.25;2.25;;;;;25.58;28.11;100707.56;5059749;28;45284;-74
2022/09/30 14:06:05;;;;;;;;;1.75;1.75;;;;;25.43;28.66;100713.88;5045543;28;45389;-76
2022/09/30 14:08:40;;;;;;;;;2.00;2.00;;;;;25.23;29.25;100710.53;5064578;28;45508;-75
2022/09/30 14:11:31;;;;;;;;;5.75;3.00;;;;;25.31;29.39;100705.09;5074358;28;45367;-74
2022/09/30 14:14:26;;;;;;;;;2.75;2.75;;;;;25.17;28.78;100698.34;5073888;28;45302;-76
2022/09/30 14:17:18;;;;;;;;;2.00;2.00;;;;;24.65;29.24;100692.06;5060575;28;46268;-76
2022/09/30 14:19:57;;;;;;;;;2.00;2.00;;;;;24.26;30.51;100702.56;5067980;28;45461;-76
2022/09/30 14:22:26;;;;;;;;;1.50;1.50;;;;;24.45;30.02;100677.72;5074044;28;45343;-76
2022/09/30 14:24:51;;;;;;;;;2.50;2.50;;;;;25.24;29.17;100706.78;5055392;28;46460;-76
2022/09/30 14:27:39;;;;;;;;;1.50;1.50;;;;;25.63;28.76;100698.84;5073996;28;45344;-75
2022/09/30 14:30:19;;;;;;;;;1.25;1.25;;;;;25.87;27.82;100698.03;5073182;28;45347;-74
2022/09/30 14:32:54;;;;;;;;;2.75;1.25;;;;;25.91;27.80;100692.03;5071799;28;45772;-76
2022/09/30 14:35:23;;;;;;;;;2.00;2.00;;;;;26.65;27.69;100693.72;5061776;28;45730;-75
2022/09/30 14:38:07;;;;;;;;;1.00;1.00;;;;;27.11;26.25;100693.94;5073500;28;45394;-75
2022/09/30 14:40:35;;;;;;;;;2.00;2.00;;;;;27.04;26.85;100693.81;5073846;28;45347;-75
2022/09/30 14:43:04;;;;;;;;;2.00;2.00;;;;;27.24;25.98;100704.38;5074018;28;45414;-76
2022/09/30 14:45:41;;;;;;;;;2.75;2.00;;;;;26.99;26.09;100696.22;5073907;28;45547;-74
2022/09/30 14:48:33;;;;;;;;;2.00;2.00;;;;;27.10;26.70;100704.09;5055257;28;47811;-74
2022/09/30 14:51:06;;;;;;;;;2.50;2.50;;;;;26.99;26.63;100718.22;5016535;28;46078;-73
2022/09/30 14:53:34;;;;;;;;;2.75;2.00;;;;;26.57;27.57;100728.63;5055399;28;45364;-75
2022/09/30 14:56:01;;;;;;;;;2.00;2.00;;;;;26.07;27.24;100739.78;5073656;28;45357;-73
2022/09/30 14:58:41;;;;;;;;;2.00;2.00;;;;;25.99;27.80;100726.88;5072859;28;46655;-71
2022/09/30 15:01:13;;;;;;;;;4.75;1.75;;;;;26.32;27.66;100727.78;5060417;28;45284;-72
2022/09/30 15:03:44;;;;;;;;;1.75;1.75;;;;;26.19;27.24;100681.56;5058881;28;45506;-73
2022/09/30 15:06:25;;;;;;;;;3.00;2.00;;;;;26.23;27.14;100709.53;5063156;28;45420;-74
2022/09/30 15:09:00;;;;;;;;;2.00;2.00;;;;;26.24;28.00;100717.63;5055241;28;47252;-74
2022/09/30 15:11:27;;;;;;;;;2.00;2.00;;;;;26.07;28.08;100718.66;5056204;28;45274;-72
2022/09/30 15:13:59;;;;;;;;;1.25;1.25;;;;;26.03;28.15;100728.25;5072773;28;45495;-71
2022/09/30 15:16:29;;;;;;;;;1.50;1.00;;;;;25.71;28.37;100709.84;5072455;28;45568;-71
2022/09/30 15:18:56;;;;;;;;;2.75;1.25;;;;;25.83;28.10;100724.13;5060253;28;45575;-70
2022/09/30 15:21:23;;;;;;;;;1.00;1.00;;;;;25.77;27.60;100731.16;5073144;28;45331;-72
2022/09/30 15:23:55;;;;;;;;;1.50;1.50;;;;;25.38;28.61;100732.72;5044678;28;45529;-73
2022/09/30 15:26:23;;;;;;;;;2.00;2.00;;;;;24.26;29.83;100745.53;5056551;28;46132;-73
2022/09/30 15:28:49;;;;;;;;;1.00;1.00;;;;;23.42;31.59;100726.69;5076655;28;46148;-73
2022/09/30 15:31:22;;;;;;;;;1.00;1.00;;;;;23.06;32.42;100752.19;5076026;28;45442;-74
2022/09/30 15:33:48;;;;;;;;;2.00;2.00;;;;;22.56;32.66;100736.94;5058405;28;45386;-75
2022/09/30 15:36:16;;;;;;;;;1.50;1.50;;;;;22.15;33.97;100716.31;5059183;28;45257;-79
2022/09/30 15:38:48;;;;;;;;;1.50;1.50;;;;;22.05;34.62;100723.63;5071667;28;45330;-73
2022/09/30 15:41:13;;;;;;;;;3.75;3.00;;;;;21.53;35.38;100731.19;5073665;28;45402;-75
2022/09/30 15:43:44;;;;;;;;;2.75;2.75;;;;;21.14;36.04;100722.03;5076452;28;45499;-73
2022/09/30 15:46:32;;;;;;;;;3.50;2.25;;;;;20.82;36.91;100732.22;5067372;28;45693;-72
2022/09/30 15:49:04;;;;;;;;;2.50;1.00;;;;;20.72;37.44;100742.22;5063005;28;47124;-75
2022/09/30 15:51:41;;;;;;;;;2.00;2.00;;;;;20.42;38.04;100734.84;5066776;28;45380;-74
2022/09/30 15:54:31;;;;;;;;;2.00;2.00;;;;;20.06;39.03;100744.31;5060729;28;45476;-75
2022/09/30 15:56:59;;;;;;;;;1.50;1.50;;;;;19.74;39.50;100733.44;5076836;28;45544;-74
2022/09/30 16:00:03;;;;;;;;;3.00;3.00;;;;;19.78;39.73;100734.03;5076622;28;45487;-75
2022/09/30 16:02:30;;;;;;;;;2.00;2.00;;;;;19.81;40.10;100739.25;5074820;28;45371;-76
2022/09/30 16:04:57;;;;;;;;;2.50;2.50;;;;;19.51;40.00;100705.44;5076281;28;45473;-76
2022/09/30 16:07:27;;;;;;;;;3.00;3.00;;;;;19.55;40.49;100746.88;5057530;28;45357;-76
2022/09/30 16:09:55;;;;;;;;;0.00;0.00;;;;;19.46;40.81;100732.16;5057820;28;48029;-76
2022/09/30 16:12:24;;;;;;;;;2.00;2.00;;;;;19.22;40.96;100710.53;5056264;28;45388;-75
2022/09/30 16:15:07;;;;;;;;;3.25;2.00;;;;;19.31;41.07;100727.94;5070700;28;45402;-74
2022/09/30 16:17:36;;;;;;;;;2.00;2.00;;;;;19.22;40.94;100701.56;5076762;28;45447;-77
2022/09/30 16:20:10;;;;;;;;;2.75;2.00;;;;;19.13;40.80;100714.06;5076411;28;46351;-76